sensor_id;sensor_type;location;lat;lon;timestamp;P1;durP1;ratioP1;P2;durP2;ratioP2
325;SDS011;150;52.352;14.058;2022-09-09T00:02:23;2.90;;;2.55;;
325;SDS011;150;52.352;14.058;2022-09-09T00:04:58;3.80;;;2.90;;
325;SDS011;150;52.352;14.058;2022-09-09T00:07:30;3.10;;;2.30;;
325;SDS011;150;52.352;14.058;2022-09-09T00:10:07;3.55;;;3.15;;
325;SDS011;150;52.352;14.058;2022-09-09T00:12:44;3.40;;;2.70;;
325;SDS011;150;52.352;14.058;2022-09-09T00:15:21;4.25;;;3.10;;
325;SDS011;150;52.352;14.058;2022-09-09T00:17:57;3.10;;;2.70;;
325;SDS011;150;52.352;14.058;2022-09-09T00:20:30;3.90;;;2.92;;
325;SDS011;150;52.352;14.058;2022-09-09T00:23:04;3.30;;;2.78;;
325;SDS011;150;52.352;14.058;2022-09-09T00:25:40;4.85;;;3.00;;
325;SDS011;150;52.352;14.058;2022-09-09T00:28:13;4.28;;;2.80;;
325;SDS011;150;52.352;14.058;2022-09-09T00:30:44;3.65;;;2.50;;
325;SDS011;150;52.352;14.058;2022-09-09T00:33:15;2.50;;;2.35;;
325;SDS011;150;52.352;14.058;2022-09-09T00:35:48;3.20;;;2.47;;
325;SDS011;150;52.352;14.058;2022-09-09T00:38:16;3.93;;;2.40;;
325;SDS011;150;52.352;14.058;2022-09-09T00:40:49;3.30;;;2.50;;
325;SDS011;150;52.352;14.058;2022-09-09T00:43:24;3.80;;;2.50;;
325;SDS011;150;52.352;14.058;2022-09-09T00:45:56;4.07;;;2.53;;
325;SDS011;150;52.352;14.058;2022-09-09T00:48:44;2.75;;;2.13;;
325;SDS011;150;52.352;14.058;2022-09-09T00:51:20;2.67;;;2.50;;
325;SDS011;150;52.352;14.058;2022-09-09T00:56:47;5.20;;;2.55;;
325;SDS011;150;52.352;14.058;2022-09-09T00:59:24;3.20;;;2.75;;
325;SDS011;150;52.352;14.058;2022-09-09T01:02:01;2.83;;;2.28;;
325;SDS011;150;52.352;14.058;2022-09-09T01:04:36;3.38;;;2.67;;
325;SDS011;150;52.352;14.058;2022-09-09T01:07:04;4.55;;;3.60;;
325;SDS011;150;52.352;14.058;2022-09-09T01:09:38;3.53;;;3.42;;
325;SDS011;150;52.352;14.058;2022-09-09T01:12:17;4.20;;;3.38;;
325;SDS011;150;52.352;14.058;2022-09-09T01:14:50;3.88;;;3.50;;
325;SDS011;150;52.352;14.058;2022-09-09T01:17:20;3.72;;;3.40;;
325;SDS011;150;52.352;14.058;2022-09-09T01:19:57;3.75;;;3.30;;
325;SDS011;150;52.352;14.058;2022-09-09T01:22:33;4.88;;;3.80;;
325;SDS011;150;52.352;14.058;2022-09-09T01:25:09;4.25;;;3.53;;
325;SDS011;150;52.352;14.058;2022-09-09T01:27:54;4.05;;;3.67;;
325;SDS011;150;52.352;14.058;2022-09-09T01:30:25;3.63;;;3.50;;
325;SDS011;150;52.352;14.058;2022-09-09T01:32:53;4.78;;;3.90;;
325;SDS011;150;52.352;14.058;2022-09-09T01:35:27;4.05;;;3.40;;
325;SDS011;150;52.352;14.058;2022-09-09T01:38:00;4.95;;;3.85;;
325;SDS011;150;52.352;14.058;2022-09-09T01:40:26;4.75;;;3.72;;
325;SDS011;150;52.352;14.058;2022-09-09T01:42:55;4.27;;;4.00;;
325;SDS011;150;52.352;14.058;2022-09-09T01:45:22;3.90;;;3.67;;
325;SDS011;150;52.352;14.058;2022-09-09T01:47:50;3.90;;;3.43;;
325;SDS011;150;52.352;14.058;2022-09-09T01:50:19;3.70;;;3.33;;
325;SDS011;150;52.352;14.058;2022-09-09T01:52:48;3.92;;;3.63;;
325;SDS011;150;52.352;14.058;2022-09-09T01:55:18;3.80;;;3.50;;
325;SDS011;150;52.352;14.058;2022-09-09T01:57:56;3.97;;;3.38;;
325;SDS011;150;52.352;14.058;2022-09-09T02:00:36;4.00;;;3.47;;
325;SDS011;150;52.352;14.058;2022-09-09T02:03:23;4.50;;;3.10;;
325;SDS011;150;52.352;14.058;2022-09-09T02:05:55;4.25;;;3.80;;
325;SDS011;150;52.352;14.058;2022-09-09T02:08:33;4.63;;;3.50;;
325;SDS011;150;52.352;14.058;2022-09-09T02:11:06;3.65;;;3.47;;
325;SDS011;150;52.352;14.058;2022-09-09T02:13:40;3.80;;;3.30;;
325;SDS011;150;52.352;14.058;2022-09-09T02:16:10;5.00;;;3.70;;
325;SDS011;150;52.352;14.058;2022-09-09T02:18:42;3.50;;;3.00;;
325;SDS011;150;52.352;14.058;2022-09-09T02:21:14;6.47;;;3.90;;
325;SDS011;150;52.352;14.058;2022-09-09T02:23:43;3.33;;;3.10;;
325;SDS011;150;52.352;14.058;2022-09-09T02:26:12;3.33;;;3.08;;
325;SDS011;150;52.352;14.058;2022-09-09T02:28:46;4.20;;;3.50;;
325;SDS011;150;52.352;14.058;2022-09-09T02:31:14;5.20;;;3.63;;
325;SDS011;150;52.352;14.058;2022-09-09T02:33:44;6.32;;;4.45;;
325;SDS011;150;52.352;14.058;2022-09-09T02:36:17;4.90;;;3.70;;
325;SDS011;150;52.352;14.058;2022-09-09T02:38:46;5.07;;;3.63;;
325;SDS011;150;52.352;14.058;2022-09-09T02:41:18;4.40;;;3.50;;
325;SDS011;150;52.352;14.058;2022-09-09T02:43:49;4.33;;;3.80;;
325;SDS011;150;52.352;14.058;2022-09-09T02:46:21;4.50;;;3.57;;
325;SDS011;150;52.352;14.058;2022-09-09T02:48:55;3.80;;;3.40;;
325;SDS011;150;52.352;14.058;2022-09-09T02:51:28;4.87;;;3.60;;
325;SDS011;150;52.352;14.058;2022-09-09T02:54:04;5.45;;;3.65;;
325;SDS011;150;52.352;14.058;2022-09-09T02:56:38;4.35;;;3.65;;
325;SDS011;150;52.352;14.058;2022-09-09T02:59:11;6.32;;;3.80;;
325;SDS011;150;52.352;14.058;2022-09-09T03:01:37;5.40;;;4.15;;
325;SDS011;150;52.352;14.058;2022-09-09T03:04:05;4.65;;;4.32;;
325;SDS011;150;52.352;14.058;2022-09-09T03:06:32;4.40;;;3.63;;
325;SDS011;150;52.352;14.058;2022-09-09T03:09:00;7.40;;;3.70;;
325;SDS011;150;52.352;14.058;2022-09-09T03:11:28;5.20;;;3.47;;
325;SDS011;150;52.352;14.058;2022-09-09T03:13:55;4.47;;;3.90;;
325;SDS011;150;52.352;14.058;2022-09-09T03:16:23;5.60;;;4.15;;
325;SDS011;150;52.352;14.058;2022-09-09T03:18:50;5.60;;;3.80;;
325;SDS011;150;52.352;14.058;2022-09-09T03:21:17;5.68;;;3.75;;
325;SDS011;150;52.352;14.058;2022-09-09T03:23:44;4.90;;;3.60;;
325;SDS011;150;52.352;14.058;2022-09-09T03:26:11;10.75;;;8.00;;
325;SDS011;150;52.352;14.058;2022-09-09T03:28:40;6.60;;;6.07;;
325;SDS011;150;52.352;14.058;2022-09-09T03:31:07;7.50;;;4.70;;
325;SDS011;150;52.352;14.058;2022-09-09T03:33:37;7.00;;;3.95;;
325;SDS011;150;52.352;14.058;2022-09-09T03:36:04;5.43;;;4.28;;
325;SDS011;150;52.352;14.058;2022-09-09T03:38:32;5.63;;;3.53;;
325;SDS011;150;52.352;14.058;2022-09-09T03:41:00;4.35;;;3.85;;
325;SDS011;150;52.352;14.058;2022-09-09T03:43:27;4.65;;;3.60;;
325;SDS011;150;52.352;14.058;2022-09-09T03:45:55;4.07;;;3.67;;
325;SDS011;150;52.352;14.058;2022-09-09T03:48:22;4.53;;;3.47;;
325;SDS011;150;52.352;14.058;2022-09-09T03:50:51;3.83;;;3.50;;
325;SDS011;150;52.352;14.058;2022-09-09T03:53:19;4.20;;;3.55;;
325;SDS011;150;52.352;14.058;2022-09-09T03:55:48;5.18;;;3.75;;
325;SDS011;150;52.352;14.058;2022-09-09T03:58:17;3.67;;;3.40;;
325;SDS011;150;52.352;14.058;2022-09-09T04:00:52;3.90;;;3.30;;
325;SDS011;150;52.352;14.058;2022-09-09T04:03:19;4.63;;;3.30;;
325;SDS011;150;52.352;14.058;2022-09-09T04:05:48;3.70;;;3.40;;
325;SDS011;150;52.352;14.058;2022-09-09T04:08:16;3.92;;;2.92;;
325;SDS011;150;52.352;14.058;2022-09-09T04:10:44;3.50;;;3.08;;
325;SDS011;150;52.352;14.058;2022-09-09T04:13:11;3.10;;;2.90;;
325;SDS011;150;52.352;14.058;2022-09-09T04:15:41;3.50;;;2.90;;
325;SDS011;150;52.352;14.058;2022-09-09T04:18:08;3.80;;;3.17;;
325;SDS011;150;52.352;14.058;2022-09-09T04:20:35;3.10;;;2.55;;
325;SDS011;150;52.352;14.058;2022-09-09T04:23:01;4.40;;;2.88;;
325;SDS011;150;52.352;14.058;2022-09-09T04:25:29;4.30;;;2.50;;
325;SDS011;150;52.352;14.058;2022-09-09T04:27:57;4.07;;;3.00;;
325;SDS011;150;52.352;14.058;2022-09-09T04:30:24;4.13;;;2.85;;
325;SDS011;150;52.352;14.058;2022-09-09T04:32:52;4.18;;;2.97;;
325;SDS011;150;52.352;14.058;2022-09-09T04:35:19;3.92;;;2.97;;
325;SDS011;150;52.352;14.058;2022-09-09T04:37:46;5.82;;;4.68;;
325;SDS011;150;52.352;14.058;2022-09-09T04:40:13;4.45;;;3.50;;
325;SDS011;150;52.352;14.058;2022-09-09T04:42:41;3.40;;;3.10;;
325;SDS011;150;52.352;14.058;2022-09-09T04:45:09;5.35;;;3.20;;
325;SDS011;150;52.352;14.058;2022-09-09T04:47:37;4.97;;;3.35;;
325;SDS011;150;52.352;14.058;2022-09-09T04:50:04;2.60;;;2.20;;
325;SDS011;150;52.352;14.058;2022-09-09T04:52:33;3.75;;;3.10;;
325;SDS011;150;52.352;14.058;2022-09-09T04:55:00;2.90;;;2.40;;
325;SDS011;150;52.352;14.058;2022-09-09T04:57:27;3.03;;;2.50;;
325;SDS011;150;52.352;14.058;2022-09-09T04:59:55;3.30;;;2.33;;
325;SDS011;150;52.352;14.058;2022-09-09T05:02:21;2.83;;;2.30;;
325;SDS011;150;52.352;14.058;2022-09-09T05:04:48;5.75;;;5.05;;
325;SDS011;150;52.352;14.058;2022-09-09T05:07:15;5.22;;;3.13;;
325;SDS011;150;52.352;14.058;2022-09-09T05:09:42;3.77;;;3.33;;
325;SDS011;150;52.352;14.058;2022-09-09T05:12:09;3.00;;;2.90;;
325;SDS011;150;52.352;14.058;2022-09-09T05:14:36;4.45;;;3.10;;
325;SDS011;150;52.352;14.058;2022-09-09T05:17:04;3.97;;;3.05;;
325;SDS011;150;52.352;14.058;2022-09-09T05:19:30;4.00;;;3.60;;
325;SDS011;150;52.352;14.058;2022-09-09T05:21:57;7.35;;;3.00;;
325;SDS011;150;52.352;14.058;2022-09-09T05:24:24;6.25;;;4.82;;
325;SDS011;150;52.352;14.058;2022-09-09T05:26:50;3.60;;;3.15;;
325;SDS011;150;52.352;14.058;2022-09-09T05:29:17;3.78;;;3.10;;
325;SDS011;150;52.352;14.058;2022-09-09T05:31:44;3.30;;;2.50;;
325;SDS011;150;52.352;14.058;2022-09-09T05:34:13;3.10;;;2.55;;
325;SDS011;150;52.352;14.058;2022-09-09T05:36:40;3.80;;;2.20;;
325;SDS011;150;52.352;14.058;2022-09-09T05:39:06;2.50;;;1.93;;
325;SDS011;150;52.352;14.058;2022-09-09T05:41:33;3.10;;;2.30;;
325;SDS011;150;52.352;14.058;2022-09-09T05:44:00;2.80;;;2.55;;
325;SDS011;150;52.352;14.058;2022-09-09T05:46:28;4.50;;;3.10;;
325;SDS011;150;52.352;14.058;2022-09-09T05:48:55;6.30;;;5.65;;
325;SDS011;150;52.352;14.058;2022-09-09T05:51:25;3.30;;;2.60;;
325;SDS011;150;52.352;14.058;2022-09-09T05:53:53;2.92;;;2.63;;
325;SDS011;150;52.352;14.058;2022-09-09T05:56:20;6.80;;;4.20;;
325;SDS011;150;52.352;14.058;2022-09-09T05:58:49;5.97;;;4.90;;
325;SDS011;150;52.352;14.058;2022-09-09T06:01:17;4.97;;;2.80;;
325;SDS011;150;52.352;14.058;2022-09-09T06:03:45;2.60;;;2.00;;
325;SDS011;150;52.352;14.058;2022-09-09T06:06:25;3.45;;;2.10;;
325;SDS011;150;52.352;14.058;2022-09-09T06:09:05;4.50;;;2.60;;
325;SDS011;150;52.352;14.058;2022-09-09T06:11:40;5.43;;;2.70;;
325;SDS011;150;52.352;14.058;2022-09-09T06:14:17;4.00;;;2.90;;
325;SDS011;150;52.352;14.058;2022-09-09T06:16:43;7.90;;;6.93;;
325;SDS011;150;52.352;14.058;2022-09-09T06:19:17;3.42;;;2.92;;
325;SDS011;150;52.352;14.058;2022-09-09T06:21:46;3.58;;;2.00;;
325;SDS011;150;52.352;14.058;2022-09-09T06:24:26;2.50;;;2.33;;
325;SDS011;150;52.352;14.058;2022-09-09T06:27:04;3.90;;;2.42;;
325;SDS011;150;52.352;14.058;2022-09-09T06:29:41;3.90;;;2.03;;
325;SDS011;150;52.352;14.058;2022-09-09T06:32:22;3.05;;;2.33;;
325;SDS011;150;52.352;14.058;2022-09-09T06:35:01;3.40;;;2.30;;
325;SDS011;150;52.352;14.058;2022-09-09T06:40:23;2.78;;;2.10;;
325;SDS011;150;52.352;14.058;2022-09-09T06:43:13;2.90;;;2.17;;
325;SDS011;150;52.352;14.058;2022-09-09T06:45:40;3.00;;;2.50;;
325;SDS011;150;52.352;14.058;2022-09-09T06:48:07;4.13;;;2.40;;
325;SDS011;150;52.352;14.058;2022-09-09T06:50:37;4.97;;;4.25;;
325;SDS011;150;52.352;14.058;2022-09-09T06:53:06;3.03;;;1.85;;
325;SDS011;150;52.352;14.058;2022-09-09T06:55:52;5.65;;;2.45;;
325;SDS011;150;52.352;14.058;2022-09-09T06:58:21;3.05;;;2.25;;
325;SDS011;150;52.352;14.058;2022-09-09T07:00:48;2.60;;;2.00;;
325;SDS011;150;52.352;14.058;2022-09-09T07:07:44;3.37;;;1.60;;
325;SDS011;150;52.352;14.058;2022-09-09T07:10:12;2.47;;;1.60;;
325;SDS011;150;52.352;14.058;2022-09-09T07:12:39;3.28;;;2.40;;
325;SDS011;150;52.352;14.058;2022-09-09T07:15:06;4.25;;;1.55;;
325;SDS011;150;52.352;14.058;2022-09-09T07:17:33;5.85;;;1.80;;
325;SDS011;150;52.352;14.058;2022-09-09T07:20:00;2.97;;;1.40;;
325;SDS011;150;52.352;14.058;2022-09-09T07:22:28;5.78;;;2.25;;
325;SDS011;150;52.352;14.058;2022-09-09T07:24:55;4.05;;;3.55;;
325;SDS011;150;52.352;14.058;2022-09-09T07:27:23;4.47;;;2.00;;
325;SDS011;150;52.352;14.058;2022-09-09T07:29:50;3.80;;;1.67;;
325;SDS011;150;52.352;14.058;2022-09-09T07:32:18;5.27;;;1.60;;
325;SDS011;150;52.352;14.058;2022-09-09T07:34:45;2.40;;;1.80;;
325;SDS011;150;52.352;14.058;2022-09-09T07:37:11;3.40;;;1.80;;
325;SDS011;150;52.352;14.058;2022-09-09T07:39:38;3.80;;;1.80;;
325;SDS011;150;52.352;14.058;2022-09-09T07:42:05;2.20;;;1.80;;
325;SDS011;150;52.352;14.058;2022-09-09T07:44:35;2.60;;;1.45;;
325;SDS011;150;52.352;14.058;2022-09-09T07:47:04;2.60;;;1.55;;
325;SDS011;150;52.352;14.058;2022-09-09T07:49:31;2.30;;;1.73;;
325;SDS011;150;52.352;14.058;2022-09-09T07:51:58;3.92;;;2.15;;
325;SDS011;150;52.352;14.058;2022-09-09T07:54:25;6.20;;;3.95;;
325;SDS011;150;52.352;14.058;2022-09-09T07:56:52;3.08;;;2.38;;
325;SDS011;150;52.352;14.058;2022-09-09T07:59:19;4.25;;;2.20;;
325;SDS011;150;52.352;14.058;2022-09-09T08:01:48;2.85;;;1.60;;
325;SDS011;150;52.352;14.058;2022-09-09T08:04:19;3.00;;;1.77;;
325;SDS011;150;52.352;14.058;2022-09-09T08:06:47;3.75;;;2.10;;
325;SDS011;150;52.352;14.058;2022-09-09T08:09:16;2.60;;;1.80;;
325;SDS011;150;52.352;14.058;2022-09-09T08:11:43;3.07;;;1.80;;
325;SDS011;150;52.352;14.058;2022-09-09T08:14:11;3.70;;;2.00;;
325;SDS011;150;52.352;14.058;2022-09-09T08:16:39;2.45;;;1.77;;
325;SDS011;150;52.352;14.058;2022-09-09T08:19:09;3.73;;;1.87;;
325;SDS011;150;52.352;14.058;2022-09-09T08:21:36;7.97;;;6.70;;
325;SDS011;150;52.352;14.058;2022-09-09T08:24:05;5.65;;;4.00;;
325;SDS011;150;52.352;14.058;2022-09-09T08:26:33;8.68;;;5.85;;
325;SDS011;150;52.352;14.058;2022-09-09T08:29:01;3.20;;;2.72;;
325;SDS011;150;52.352;14.058;2022-09-09T08:31:30;2.87;;;2.17;;
325;SDS011;150;52.352;14.058;2022-09-09T08:33:59;3.60;;;1.83;;
325;SDS011;150;52.352;14.058;2022-09-09T08:36:28;3.53;;;1.83;;
325;SDS011;150;52.352;14.058;2022-09-09T08:38:58;2.75;;;1.73;;
325;SDS011;150;52.352;14.058;2022-09-09T08:44:28;4.95;;;2.05;;
325;SDS011;150;52.352;14.058;2022-09-09T08:47:06;2.40;;;1.40;;
325;SDS011;150;52.352;14.058;2022-09-09T08:49:48;4.93;;;2.40;;
325;SDS011;150;52.352;14.058;2022-09-09T08:52:29;2.90;;;1.70;;
325;SDS011;150;52.352;14.058;2022-09-09T08:55:03;2.47;;;1.67;;
325;SDS011;150;52.352;14.058;2022-09-09T08:57:38;4.00;;;1.80;;
325;SDS011;150;52.352;14.058;2022-09-09T09:00:07;5.30;;;2.00;;
325;SDS011;150;52.352;14.058;2022-09-09T09:02:37;2.90;;;1.58;;
325;SDS011;150;52.352;14.058;2022-09-09T09:05:16;3.50;;;2.43;;
325;SDS011;150;52.352;14.058;2022-09-09T09:07:54;2.33;;;1.70;;
325;SDS011;150;52.352;14.058;2022-09-09T09:10:31;3.10;;;1.90;;
325;SDS011;150;52.352;14.058;2022-09-09T09:13:11;2.55;;;1.80;;
325;SDS011;150;52.352;14.058;2022-09-09T09:15:40;5.40;;;3.40;;
325;SDS011;150;52.352;14.058;2022-09-09T09:18:10;2.95;;;2.65;;
325;SDS011;150;52.352;14.058;2022-09-09T09:20:40;4.75;;;1.95;;
325;SDS011;150;52.352;14.058;2022-09-09T09:23:18;4.40;;;2.20;;
325;SDS011;150;52.352;14.058;2022-09-09T09:25:48;3.37;;;1.57;;
325;SDS011;150;52.352;14.058;2022-09-09T09:28:18;4.70;;;1.60;;
325;SDS011;150;52.352;14.058;2022-09-09T09:30:50;4.35;;;2.15;;
325;SDS011;150;52.352;14.058;2022-09-09T09:33:23;3.13;;;1.60;;
325;SDS011;150;52.352;14.058;2022-09-09T09:35:54;4.22;;;1.60;;
325;SDS011;150;52.352;14.058;2022-09-09T09:38:23;3.22;;;1.60;;
325;SDS011;150;52.352;14.058;2022-09-09T09:40:52;2.90;;;1.70;;
325;SDS011;150;52.352;14.058;2022-09-09T09:43:24;2.80;;;1.60;;
325;SDS011;150;52.352;14.058;2022-09-09T09:45:53;5.60;;;2.50;;
325;SDS011;150;52.352;14.058;2022-09-09T09:48:20;3.38;;;1.45;;
325;SDS011;150;52.352;14.058;2022-09-09T09:50:48;2.47;;;1.50;;
325;SDS011;150;52.352;14.058;2022-09-09T09:53:19;3.38;;;1.60;;
325;SDS011;150;52.352;14.058;2022-09-09T09:55:52;2.67;;;1.50;;
325;SDS011;150;52.352;14.058;2022-09-09T09:58:23;2.85;;;1.52;;
325;SDS011;150;52.352;14.058;2022-09-09T10:00:53;3.47;;;1.42;;
325;SDS011;150;52.352;14.058;2022-09-09T10:03:22;2.30;;;1.63;;
325;SDS011;150;52.352;14.058;2022-09-09T10:05:50;3.17;;;1.52;;
325;SDS011;150;52.352;14.058;2022-09-09T10:08:18;2.00;;;1.48;;
325;SDS011;150;52.352;14.058;2022-09-09T10:10:49;3.35;;;1.58;;
325;SDS011;150;52.352;14.058;2022-09-09T10:13:25;4.45;;;1.30;;
325;SDS011;150;52.352;14.058;2022-09-09T10:16:01;2.80;;;1.30;;
325;SDS011;150;52.352;14.058;2022-09-09T10:18:36;3.40;;;1.95;;
325;SDS011;150;52.352;14.058;2022-09-09T10:21:16;5.63;;;2.15;;
325;SDS011;150;52.352;14.058;2022-09-09T10:23:54;3.40;;;1.50;;
325;SDS011;150;52.352;14.058;2022-09-09T10:26:38;3.83;;;1.98;;
325;SDS011;150;52.352;14.058;2022-09-09T10:29:16;3.13;;;1.70;;
325;SDS011;150;52.352;14.058;2022-09-09T10:31:52;2.60;;;1.60;;
325;SDS011;150;52.352;14.058;2022-09-09T10:34:37;1.92;;;1.30;;
325;SDS011;150;52.352;14.058;2022-09-09T10:37:17;2.60;;;1.57;;
325;SDS011;150;52.352;14.058;2022-09-09T10:39:50;1.97;;;1.30;;
325;SDS011;150;52.352;14.058;2022-09-09T10:42:29;2.28;;;1.20;;
325;SDS011;150;52.352;14.058;2022-09-09T10:45:00;9.18;;;7.68;;
325;SDS011;150;52.352;14.058;2022-09-09T10:47:45;3.70;;;2.08;;
325;SDS011;150;52.352;14.058;2022-09-09T10:50:35;2.53;;;1.77;;
325;SDS011;150;52.352;14.058;2022-09-09T10:53:14;2.60;;;1.30;;
325;SDS011;150;52.352;14.058;2022-09-09T10:55:45;2.20;;;1.30;;
325;SDS011;150;52.352;14.058;2022-09-09T10:58:20;3.22;;;1.10;;
325;SDS011;150;52.352;14.058;2022-09-09T11:00:52;2.10;;;1.10;;
325;SDS011;150;52.352;14.058;2022-09-09T11:03:23;3.00;;;1.40;;
325;SDS011;150;52.352;14.058;2022-09-09T11:05:53;4.20;;;1.20;;
325;SDS011;150;52.352;14.058;2022-09-09T11:08:24;2.80;;;1.30;;
325;SDS011;150;52.352;14.058;2022-09-09T11:10:53;3.20;;;1.17;;
325;SDS011;150;52.352;14.058;2022-09-09T11:13:29;4.40;;;1.35;;
325;SDS011;150;52.352;14.058;2022-09-09T11:16:01;3.95;;;1.90;;
325;SDS011;150;52.352;14.058;2022-09-09T11:18:37;3.53;;;1.40;;
325;SDS011;150;52.352;14.058;2022-09-09T11:21:09;2.85;;;1.20;;
325;SDS011;150;52.352;14.058;2022-09-09T11:23:44;3.55;;;0.93;;
325;SDS011;150;52.352;14.058;2022-09-09T11:26:15;2.30;;;1.03;;
325;SDS011;150;52.352;14.058;2022-09-09T11:28:54;3.00;;;1.10;;
325;SDS011;150;52.352;14.058;2022-09-09T11:31:40;6.90;;;4.07;;
325;SDS011;150;52.352;14.058;2022-09-09T11:34:15;3.20;;;1.00;;
325;SDS011;150;52.352;14.058;2022-09-09T11:37:02;3.75;;;1.08;;
325;SDS011;150;52.352;14.058;2022-09-09T11:39:44;2.90;;;1.10;;
325;SDS011;150;52.352;14.058;2022-09-09T11:42:35;2.45;;;1.50;;
325;SDS011;150;52.352;14.058;2022-09-09T11:45:10;1.50;;;0.80;;
325;SDS011;150;52.352;14.058;2022-09-09T11:47:51;2.80;;;1.30;;
325;SDS011;150;52.352;14.058;2022-09-09T11:50:29;2.90;;;1.07;;
325;SDS011;150;52.352;14.058;2022-09-09T11:55:47;4.00;;;1.00;;
325;SDS011;150;52.352;14.058;2022-09-09T11:58:26;3.70;;;1.38;;
325;SDS011;150;52.352;14.058;2022-09-09T12:00:55;2.92;;;0.98;;
325;SDS011;150;52.352;14.058;2022-09-09T12:03:32;5.20;;;1.10;;
325;SDS011;150;52.352;14.058;2022-09-09T12:06:08;2.30;;;0.95;;
325;SDS011;150;52.352;14.058;2022-09-09T12:08:39;3.00;;;0.95;;
325;SDS011;150;52.352;14.058;2022-09-09T12:11:09;3.78;;;1.00;;
325;SDS011;150;52.352;14.058;2022-09-09T12:13:37;2.30;;;0.70;;
325;SDS011;150;52.352;14.058;2022-09-09T12:16:05;1.90;;;1.20;;
325;SDS011;150;52.352;14.058;2022-09-09T12:18:51;4.70;;;1.10;;
325;SDS011;150;52.352;14.058;2022-09-09T12:21:32;2.92;;;1.08;;
325;SDS011;150;52.352;14.058;2022-09-09T12:24:04;2.80;;;1.00;;
325;SDS011;150;52.352;14.058;2022-09-09T12:26:36;3.17;;;1.17;;
325;SDS011;150;52.352;14.058;2022-09-09T12:29:11;1.70;;;0.80;;
325;SDS011;150;52.352;14.058;2022-09-09T12:31:46;2.38;;;1.05;;
325;SDS011;150;52.352;14.058;2022-09-09T12:34:20;2.43;;;1.07;;
325;SDS011;150;52.352;14.058;2022-09-09T12:36:58;4.13;;;1.10;;
325;SDS011;150;52.352;14.058;2022-09-09T12:39:31;3.08;;;1.00;;
325;SDS011;150;52.352;14.058;2022-09-09T12:42:01;3.17;;;1.27;;
325;SDS011;150;52.352;14.058;2022-09-09T12:44:29;3.63;;;1.88;;
325;SDS011;150;52.352;14.058;2022-09-09T12:46:59;3.80;;;2.67;;
325;SDS011;150;52.352;14.058;2022-09-09T12:49:29;3.20;;;1.30;;
325;SDS011;150;52.352;14.058;2022-09-09T12:52:01;4.55;;;1.20;;
325;SDS011;150;52.352;14.058;2022-09-09T12:54:30;4.35;;;1.00;;
325;SDS011;150;52.352;14.058;2022-09-09T12:56:58;3.60;;;1.42;;
325;SDS011;150;52.352;14.058;2022-09-09T12:59:25;3.60;;;1.30;;
325;SDS011;150;52.352;14.058;2022-09-09T13:01:56;2.08;;;1.20;;
325;SDS011;150;52.352;14.058;2022-09-09T13:04:25;2.27;;;1.30;;
325;SDS011;150;52.352;14.058;2022-09-09T13:06:52;4.45;;;1.20;;
325;SDS011;150;52.352;14.058;2022-09-09T13:09:19;2.80;;;1.40;;
325;SDS011;150;52.352;14.058;2022-09-09T13:11:46;3.85;;;1.45;;
325;SDS011;150;52.352;14.058;2022-09-09T13:14:16;3.40;;;1.63;;
325;SDS011;150;52.352;14.058;2022-09-09T13:16:53;4.30;;;2.20;;
325;SDS011;150;52.352;14.058;2022-09-09T13:19:22;3.42;;;1.58;;
325;SDS011;150;52.352;14.058;2022-09-09T13:21:52;3.40;;;1.20;;
325;SDS011;150;52.352;14.058;2022-09-09T13:24:24;3.78;;;1.60;;
325;SDS011;150;52.352;14.058;2022-09-09T13:26:55;4.30;;;2.90;;
325;SDS011;150;52.352;14.058;2022-09-09T13:29:23;3.13;;;1.98;;
325;SDS011;150;52.352;14.058;2022-09-09T13:31:50;2.20;;;1.20;;
325;SDS011;150;52.352;14.058;2022-09-09T13:34:28;4.30;;;1.27;;
325;SDS011;150;52.352;14.058;2022-09-09T13:36:59;2.83;;;1.10;;
325;SDS011;150;52.352;14.058;2022-09-09T13:39:28;2.70;;;1.15;;
325;SDS011;150;52.352;14.058;2022-09-09T13:41:55;2.47;;;1.00;;
325;SDS011;150;52.352;14.058;2022-09-09T13:44:23;2.20;;;1.20;;
325;SDS011;150;52.352;14.058;2022-09-09T13:47:02;5.40;;;1.40;;
325;SDS011;150;52.352;14.058;2022-09-09T13:49:30;3.00;;;1.15;;
325;SDS011;150;52.352;14.058;2022-09-09T13:52:08;2.03;;;1.00;;
325;SDS011;150;52.352;14.058;2022-09-09T13:54:38;3.00;;;1.50;;
325;SDS011;150;52.352;14.058;2022-09-09T13:57:05;4.10;;;1.40;;
325;SDS011;150;52.352;14.058;2022-09-09T13:59:40;2.90;;;1.20;;
325;SDS011;150;52.352;14.058;2022-09-09T14:02:06;4.38;;;2.50;;
325;SDS011;150;52.352;14.058;2022-09-09T14:04:33;2.80;;;1.52;;
325;SDS011;150;52.352;14.058;2022-09-09T14:07:00;3.53;;;2.17;;
325;SDS011;150;52.352;14.058;2022-09-09T14:09:29;2.90;;;1.02;;
325;SDS011;150;52.352;14.058;2022-09-09T14:11:55;2.60;;;1.30;;
325;SDS011;150;52.352;14.058;2022-09-09T14:14:22;3.30;;;0.80;;
325;SDS011;150;52.352;14.058;2022-09-09T14:16:50;3.78;;;1.00;;
325;SDS011;150;52.352;14.058;2022-09-09T14:19:16;2.30;;;0.90;;
325;SDS011;150;52.352;14.058;2022-09-09T14:21:43;3.25;;;1.02;;
325;SDS011;150;52.352;14.058;2022-09-09T14:24:10;1.60;;;0.70;;
325;SDS011;150;52.352;14.058;2022-09-09T14:26:38;3.58;;;1.95;;
325;SDS011;150;52.352;14.058;2022-09-09T14:29:05;2.20;;;1.00;;
325;SDS011;150;52.352;14.058;2022-09-09T14:31:32;4.07;;;1.25;;
325;SDS011;150;52.352;14.058;2022-09-09T14:33:59;4.20;;;0.82;;
325;SDS011;150;52.352;14.058;2022-09-09T14:36:25;3.05;;;1.27;;
325;SDS011;150;52.352;14.058;2022-09-09T14:38:52;3.67;;;1.60;;
325;SDS011;150;52.352;14.058;2022-09-09T14:41:19;2.35;;;1.00;;
325;SDS011;150;52.352;14.058;2022-09-09T14:43:48;2.50;;;0.80;;
325;SDS011;150;52.352;14.058;2022-09-09T14:46:20;2.88;;;1.40;;
325;SDS011;150;52.352;14.058;2022-09-09T14:48:56;2.35;;;1.17;;
325;SDS011;150;52.352;14.058;2022-09-09T14:51:23;7.47;;;5.07;;
325;SDS011;150;52.352;14.058;2022-09-09T14:53:52;4.63;;;1.73;;
325;SDS011;150;52.352;14.058;2022-09-09T14:56:20;4.82;;;2.20;;
325;SDS011;150;52.352;14.058;2022-09-09T14:58:50;3.55;;;1.88;;
325;SDS011;150;52.352;14.058;2022-09-09T15:01:19;3.30;;;1.20;;
325;SDS011;150;52.352;14.058;2022-09-09T15:03:48;2.38;;;1.30;;
325;SDS011;150;52.352;14.058;2022-09-09T15:06:17;3.13;;;1.50;;
325;SDS011;150;52.352;14.058;2022-09-09T15:08:45;2.38;;;1.20;;
325;SDS011;150;52.352;14.058;2022-09-09T15:11:13;3.15;;;1.35;;
325;SDS011;150;52.352;14.058;2022-09-09T15:13:41;5.35;;;1.30;;
325;SDS011;150;52.352;14.058;2022-09-09T15:16:11;5.10;;;4.20;;
325;SDS011;150;52.352;14.058;2022-09-09T15:18:39;4.30;;;1.80;;
325;SDS011;150;52.352;14.058;2022-09-09T15:21:07;4.30;;;2.20;;
325;SDS011;150;52.352;14.058;2022-09-09T15:23:35;3.37;;;2.73;;
325;SDS011;150;52.352;14.058;2022-09-09T15:26:02;6.63;;;3.10;;
325;SDS011;150;52.352;14.058;2022-09-09T15:28:30;4.88;;;1.90;;
325;SDS011;150;52.352;14.058;2022-09-09T15:30:57;4.10;;;1.65;;
325;SDS011;150;52.352;14.058;2022-09-09T15:33:32;2.97;;;1.00;;
325;SDS011;150;52.352;14.058;2022-09-09T15:36:11;3.67;;;2.40;;
325;SDS011;150;52.352;14.058;2022-09-09T15:38:39;2.53;;;1.27;;
325;SDS011;150;52.352;14.058;2022-09-09T15:41:06;3.63;;;1.83;;
325;SDS011;150;52.352;14.058;2022-09-09T15:43:32;7.30;;;5.80;;
325;SDS011;150;52.352;14.058;2022-09-09T15:46:02;5.60;;;4.30;;
325;SDS011;150;52.352;14.058;2022-09-09T15:48:48;5.57;;;3.60;;
325;SDS011;150;52.352;14.058;2022-09-09T15:51:16;4.38;;;2.13;;
325;SDS011;150;52.352;14.058;2022-09-09T15:53:43;5.75;;;2.40;;
325;SDS011;150;52.352;14.058;2022-09-09T15:56:10;3.30;;;1.80;;
325;SDS011;150;52.352;14.058;2022-09-09T15:58:36;3.35;;;1.52;;
325;SDS011;150;52.352;14.058;2022-09-09T16:01:03;6.95;;;3.55;;
325;SDS011;150;52.352;14.058;2022-09-09T16:03:33;3.42;;;1.83;;
325;SDS011;150;52.352;14.058;2022-09-09T16:06:01;6.38;;;3.30;;
325;SDS011;150;52.352;14.058;2022-09-09T16:08:31;2.80;;;1.70;;
325;SDS011;150;52.352;14.058;2022-09-09T16:11:03;4.23;;;2.90;;